Aviation Digital Data Service (ADDS)

Output produced by METARs form (1456 UTC 17 November 2019)
found at http://aviationweather.gov/metar/data/
 
METAR text: KJOT 171435Z AUTO 17003KT 10SM CLR 00/M01 A3005 RMK AO2 T00001008
Conditions at: KJOT (JOLIET , IL, US) observed 1435 UTC 17 November 2019
Temperature: 0.0°C (32°F)
Dewpoint: -0.8°C (31°F) [RH = 94%]
Pressure (altimeter): 30.05 inches Hg (1017.7 mb)
Winds: from the S (170 degrees) at 3 MPH (3 knots; 1.5 m/s)
Visibility: 10 or more miles (16+ km)
Ceiling: at least 12,000 feet AGL
Clouds: sky clear below 12,000 feet AGL
Weather: automated observation with no human augmentation;
there may or may not be significant weather present at this time